Abilene, TX (79606)

11:59 PM CST on December 02, 2016 (GMT -0600)
Wylie (Willow Bend) | | Change Station

Elev 1841 ft 32.36 °N, 99.80 °W | Updated 14 seconds ago

Overcast
Overcast
47.1 °F
Feels Like 46 °F
N
3.1
Wind Variable Wind from East
Gusts 5.8 mph

Today
High -- | Low -- °F
--% Chance of Precip.
Yesterday
High -- | Low -- °F
Precip. -- in
Pressure 30.04 in
Visibility 8.0 miles
Clouds Overcast 4200 ft
Windchill 46 °F
Dew Point 45 °F
Humidity 92%
Rainfall 0.64 in
Snow Depth Not available.
7:23 AM 5:33 PM
Waxing Crescent, 12% visible
METAR KDYS 030558Z AUTO 02005KT 8SM OVC042 09/08 A3007 RMK AO2 SLP170 60019 T00850075 10118 20085 401730060 56004 $
Pressure 30.04 in
Visibility 8.0 miles
Clouds Overcast 4200 ft
Windchill 46 °F
Dew Point 45 °F
Humidity 92%
Rainfall 0.64 in
Snow Depth Not available.
7:23 AM 5:33 PM
Waxing Crescent, 12% visible
METAR KDYS 030558Z AUTO 02005KT 8SM OVC042 09/08 A3007 RMK AO2 SLP170 60019 T00850075 10118 20085 401730060 56004 $

10-Day Weather Forecast

Almanac

Astronomy

Dec. 02, 2016 Rise Set
Actual Time
Civil Twilight
Nautical Twilight
Astronomical Twilight
Moon
Length of Visible Light
Length of Day
Tomorrow will be .
, % of the Moon is Illuminated

Today's Extremes

State Highs State Lows

Community

WunderPhotos

Upload Photos

1,955,427 photos uploaded!

WunderBlog® & News

Nearby

Air Quality

  Air Quality AQ Index Pollutant
Not available.

Snow Depth

Station Depth Elevation

Earthquake Activity

City Distance Mag. Time & Date
Minimum magnitude displayed is 2.5.

Coastal Water Temperatures

Place Temperature

Stations

Nearby Weather Stations

Station Location Temp. Windchill Dew Point Humidity Wind Precip. Elev Updated Type
                   

Watches & Warnings

There are currently no watches in effect.